Saltar para o conteúdo principal

Barreiro, Lavradio

ID 1210766 · 38.6745, -9.0477 mapa

Última leitura · 2026-05-09 18:00 (Europe/Lisbon)

Temperatura
16.9 °C
Humidade
76 %
Pressão
Precipitação
0.3 mm
Radiação
1,921 W/m²
Velocidade do vento
16.6 km/h
Direcção do vento
SW · Sudoeste

Histórico de 24 horas

Hora (Europe/Lisbon) Temperatura Humidade Pressão Chuva Vento Direcção
2026-05-09 18:00 16.9 °C 76 % 0.3 mm 16.6 km/h SW
2026-05-09 17:00 15.7 °C 81 % 0.7 mm 17.3 km/h SW
2026-05-09 16:00 17.1 °C 78 % 2.4 mm 23.8 km/h SW
2026-05-09 15:00 19.3 °C 64 % 0.1 mm 21.2 km/h SW
2026-05-09 14:00 19.5 °C 61 % 0.0 mm 22.3 km/h SW
2026-05-09 13:00 19.1 °C 60 % 0.0 mm 19.1 km/h S
2026-05-09 12:00 18.3 °C 64 % 0.0 mm 23.0 km/h S
2026-05-09 11:00 16.9 °C 76 % 0.0 mm 18.0 km/h SW
2026-05-09 10:00 15.5 °C 88 % 2.7 mm 12.2 km/h S
2026-05-09 09:00 14.7 °C 92 % 0.0 mm 12.2 km/h SE
2026-05-09 08:00 13.5 °C 94 % 0.0 mm 10.1 km/h SE
2026-05-09 07:00 13.5 °C 93 % 2.9 mm 4.0 km/h S
2026-05-09 06:00 13.9 °C 95 % 3.7 mm 3.6 km/h SW
2026-05-09 05:00 13.7 °C 91 % 0.5 mm 10.8 km/h SE
2026-05-09 04:00 14.5 °C 87 % 0.8 mm 11.5 km/h SE
2026-05-09 03:00 13.5 °C 90 % 0.1 mm 12.6 km/h SE
2026-05-09 02:00 14.7 °C 81 % 4.3 mm 7.2 km/h SW
2026-05-09 01:00 15.6 °C 75 % 0.0 mm 17.6 km/h S
2026-05-09 00:00 16.1 °C 71 % 0.0 mm 20.5 km/h S
2026-05-08 23:00 16.1 °C 76 % 0.0 mm 24.8 km/h S
2026-05-08 22:00 15.8 °C 84 % 0.1 mm 13.7 km/h SE
2026-05-08 21:00 16.5 °C 78 % 0.0 mm 20.9 km/h SE
2026-05-08 20:00 17.9 °C 63 % 0.0 mm 16.6 km/h SE
2026-05-08 19:00 18.4 °C 63 % 0.0 mm 13.7 km/h